Terminal Aerodrome Forecast
Issued by NWS Knoxville/Tri Cities, TN

Home | Current Version | Previous Version | Text Only | Print | Product List | Glossary On
Versions: 1 2 3 4 5 6 7 8 9 10 11 12 13
000
FTUS44 KMRX 180528
TAFCHA
TAF
KCHA 180528Z 1806/1906 VRB03KT P6SM BKN060 BKN120
     FM181300 03007KT P6SM BKN050 OVC120
     FM190100 35005KT P6SM SCT060 OVC120=

USA.gov is the U.S. government's official web portal to all federal, state and local government web resources and services.